KLUF/LUF METAR and TAF weather

Enter ICAO airport designator
Station Type Date Time Source
KLUF METAR 2019/04/22 15:58 UTC NOAA

KLUF 221558Z AUTO 05004KT 10SM CLR 22/02 A2988 RMK AO2 SLP109 T02190020 $


Station Type Date Time Source
KLUF Decoded METAR 2019/04/22 15:58 UTC NOAA

Luke Air Force Base / Phoenix, AZ, United States (KLUF) 33-32N 112-23W 332M
Apr 22, 2019 - 11:58 AM EDT / 2019.04.22 1558 UTC
Wind: from the NE (050 degrees) at 5 MPH (4 KT):0
Visibility: 10 mile(s):0
Sky conditions: clear
Temperature: 71.4 F (21.9 C)
Dew Point: 35.6 F (2.0 C)
Relative Humidity: 26%
Pressure (altimeter): 29.88 in. Hg (1011 hPa)
ob: KLUF 221558Z AUTO 05004KT 10SM CLR 22/02 A2988 RMK AO2 SLP109 T02190020
cycle: 16

Station Type Date Time Source
KLUF TAF 2019/04/22 12:17 UTC NOAA

TAF KLUF 221205Z 2212/2318 23006KT 9999 SKC QNH2973INS
BECMG 2308/2309 23006KT 9999 SCT150 QNH2978INS TX30/2223Z TN12/2212Z

Example: see airport list